Time;durP1;ratioP1;P1;durP2;ratioP2;P2;SDS_P1;SDS_P2;PMS_P1;PMS_P2;Temp;Humidity;BMP_temperature;BMP_pressure;BME280_temperature;BME280_humidity;BME280_pressure;Samples;Min_cycle;Max_cycle;Signal;HPM_P1;HPM_P2
2021/07/26 00:00:50;;;;;;;5.30;2.85;;;18.20;99.90;;;;;;5031585;28;20474;-73
2021/07/26 00:03:15;;;;;;;4.53;2.80;;;18.10;99.90;;;;;;5032018;28;20091;-72
2021/07/26 00:05:41;;;;;;;5.30;3.20;;;17.60;99.90;;;;;;5031945;28;20075;-73
2021/07/26 00:08:07;;;;;;;4.63;3.20;;;17.80;99.90;;;;;;5032912;28;20553;-73
2021/07/26 00:10:34;;;;;;;4.30;3.08;;;17.60;99.90;;;;;;5050638;28;20025;-71
2021/07/26 00:13:01;;;;;;;3.80;3.28;;;18.20;99.90;;;;;;5051665;28;20055;-73
2021/07/26 00:15:29;;;;;;;5.18;3.17;;;17.70;99.90;;;;;;5038648;28;20029;-72
2021/07/26 00:17:55;;;;;;;3.80;3.00;;;17.70;99.90;;;;;;5030332;28;20068;-73
2021/07/26 00:20:20;;;;;;;4.05;3.08;;;17.60;99.90;;;;;;5049183;28;20079;-72
2021/07/26 00:22:46;;;;;;;4.88;3.10;;;17.50;99.90;;;;;;5051734;28;20041;-73
2021/07/26 00:25:12;;;;;;;6.30;3.00;;;17.50;99.90;;;;;;5050524;28;20036;-75
2021/07/26 00:27:38;;;;;;;6.20;2.97;;;17.50;99.90;;;;;;5050046;28;20143;-74
2021/07/26 00:30:04;;;;;;;4.43;3.15;;;17.50;99.90;;;;;;5033915;28;20534;-73
2021/07/26 00:32:30;;;;;;;4.38;2.85;;;17.50;99.90;;;;;;5031534;28;20038;-71
2021/07/26 00:34:56;;;;;;;4.20;3.17;;;17.60;99.90;;;;;;5030327;28;20030;-71
2021/07/26 00:37:26;;;;;;;4.53;3.08;;;17.40;99.90;;;;;;5031609;28;20509;-71
2021/07/26 00:39:52;;;;;;;4.85;3.25;;;17.30;99.90;;;;;;5044171;28;20037;-71
2021/07/26 00:42:18;;;;;;;5.53;3.75;;;17.30;99.90;;;;;;5051522;28;20025;-71
2021/07/26 00:44:44;;;;;;;7.78;3.25;;;17.90;99.90;;;;;;5044062;28;20033;-73
2021/07/26 00:47:09;;;;;;;4.30;3.13;;;17.20;99.90;;;;;;5031454;28;20123;-71
2021/07/26 00:49:36;;;;;;;4.25;3.17;;;17.20;99.90;;;;;;5043000;28;20226;-72
2021/07/26 00:52:02;;;;;;;7.10;3.60;;;18.00;99.90;;;;;;5051284;28;20021;-71
2021/07/26 00:54:37;;;;;;;4.28;3.03;;;17.20;99.90;;;;;;5052744;28;20021;-72
2021/07/26 00:57:04;;;;;;;4.05;3.10;;;17.10;99.90;;;;;;5055353;28;20021;-72
2021/07/26 00:59:31;;;;;;;5.13;3.10;;;17.00;99.90;;;;;;5053202;28;20033;-71
2021/07/26 01:01:58;;;;;;;4.53;3.28;;;17.10;99.90;;;;;;5054014;28;20025;-72
2021/07/26 01:04:24;;;;;;;8.85;3.45;;;17.20;99.90;;;;;;5055482;28;20019;-72
2021/07/26 01:06:51;;;;;;;4.15;3.28;;;17.20;99.90;;;;;;5055096;28;20079;-71
2021/07/26 01:09:16;;;;;;;4.55;3.20;;;17.40;99.90;;;;;;5050081;28;20033;-71
2021/07/26 01:11:44;;;;;;;4.63;3.47;;;17.10;99.90;;;;;;5055041;28;20031;-71
2021/07/26 01:14:11;;;;;;;5.50;3.38;;;17.10;99.90;;;;;;5052283;28;20036;-72
2021/07/26 01:16:37;;;;;;;4.82;3.55;;;16.90;99.90;;;;;;5035211;28;20049;-71
2021/07/26 01:19:02;;;;;;;6.05;3.38;;;16.80;99.90;;;;;;5044884;28;20501;-72
2021/07/26 01:21:30;;;;;;;5.45;3.30;;;16.80;99.90;;;;;;5054860;28;20025;-71
2021/07/26 01:23:58;;;;;;;4.60;3.13;;;16.50;99.90;;;;;;5040222;28;20222;-71
2021/07/26 01:26:25;;;;;;;6.20;3.47;;;16.70;99.90;;;;;;5033885;28;20053;-71
2021/07/26 01:29:03;;;;;;;4.97;3.65;;;16.90;99.90;;;;;;5048143;28;20033;-72
2021/07/26 01:31:29;;;;;;;5.28;3.58;;;16.60;99.90;;;;;;5053462;28;20115;-72
2021/07/26 01:33:55;;;;;;;6.57;4.10;;;16.60;99.90;;;;;;5038880;28;20497;-72
2021/07/26 01:36:22;;;;;;;7.38;3.80;;;16.90;99.90;;;;;;5032813;28;20393;-71
2021/07/26 01:38:51;;;;;;;9.90;4.10;;;16.70;99.90;;;;;;5047017;28;20025;-74
2021/07/26 01:41:20;;;;;;;5.15;3.17;;;17.50;99.90;;;;;;5054513;28;20021;-71
2021/07/26 01:46:52;;;;;;;4.32;3.38;;;17.00;99.90;;;;;;5015014;28;20040;-71
2021/07/26 01:49:48;;;;;;;6.78;3.13;;;17.20;99.90;;;;;;5048391;28;20063;-72
2021/07/26 01:52:15;;;;;;;7.15;3.00;;;16.70;99.90;;;;;;5051710;28;20029;-71
2021/07/26 01:54:40;;;;;;;5.85;3.40;;;17.20;99.90;;;;;;5052608;28;20029;-73
2021/07/26 01:57:07;;;;;;;4.88;3.55;;;17.00;99.90;;;;;;5052818;28;20032;-71
2021/07/26 01:59:33;;;;;;;9.05;3.72;;;17.00;99.90;;;;;;5033825;28;20091;-72
2021/07/26 02:01:58;;;;;;;4.95;3.28;;;17.30;99.90;;;;;;5034187;28;20124;-71
2021/07/26 02:04:24;;;;;;;6.28;4.25;;;17.30;99.90;;;;;;5050346;28;20059;-71
2021/07/26 02:06:50;;;;;;;6.97;3.50;;;16.90;99.90;;;;;;5053970;28;20033;-71
2021/07/26 02:09:15;;;;;;;4.55;3.15;;;17.30;99.90;;;;;;5034732;28;20033;-71
2021/07/26 02:11:41;;;;;;;4.35;2.90;;;17.10;99.90;;;;;;5034152;28;20494;-72
2021/07/26 02:14:10;;;;;;;4.25;3.05;;;17.00;99.90;;;;;;5034122;28;20112;-71
2021/07/26 02:16:37;;;;;;;4.50;3.50;;;17.00;99.90;;;;;;5033941;28;20032;-71
2021/07/26 02:19:03;;;;;;;6.85;3.67;;;16.90;99.90;;;;;;5030418;28;20033;-75
2021/07/26 02:21:29;;;;;;;4.47;3.08;;;16.90;99.90;;;;;;5053558;28;20025;-72
2021/07/26 02:23:55;;;;;;;4.05;3.20;;;16.90;99.90;;;;;;5039199;28;20576;-71
2021/07/26 02:26:20;;;;;;;6.45;3.05;;;16.80;99.90;;;;;;5032584;28;20717;-71
2021/07/26 02:28:46;;;;;;;5.25;3.15;;;17.10;99.90;;;;;;5034345;28;20103;-72
2021/07/26 02:31:12;;;;;;;5.15;3.55;;;16.80;99.90;;;;;;5033747;28;20410;-71
2021/07/26 02:33:37;;;;;;;4.63;3.45;;;16.70;99.90;;;;;;5043840;28;20037;-71
2021/07/26 02:36:03;;;;;;;6.38;3.63;;;16.60;99.90;;;;;;5053607;28;20025;-71
2021/07/26 02:38:29;;;;;;;4.32;3.28;;;16.70;99.90;;;;;;5043155;28;20390;-71
2021/07/26 02:40:54;;;;;;;5.25;3.60;;;16.80;99.90;;;;;;5031676;28;20364;-71
2021/07/26 02:43:20;;;;;;;5.10;3.45;;;17.00;99.90;;;;;;5042614;28;20059;-74
2021/07/26 02:45:47;;;;;;;6.03;3.33;;;16.90;99.90;;;;;;5052304;28;20082;-71
2021/07/26 02:48:13;;;;;;;5.80;3.63;;;16.80;99.90;;;;;;5053420;28;20105;-71
2021/07/26 02:50:39;;;;;;;7.25;3.90;;;17.70;99.90;;;;;;5052696;28;20071;-71
2021/07/26 02:53:05;;;;;;;5.15;3.60;;;16.70;99.90;;;;;;5045823;28;20105;-74
2021/07/26 02:55:30;;;;;;;6.15;3.88;;;16.60;99.90;;;;;;5033264;28;20053;-71
2021/07/26 02:57:57;;;;;;;5.18;3.67;;;16.70;99.90;;;;;;5038802;28;20476;-72
2021/07/26 03:00:23;;;;;;;4.93;3.33;;;16.90;99.90;;;;;;5052596;28;20401;-74
2021/07/26 03:02:48;;;;;;;5.00;3.47;;;16.50;99.90;;;;;;5053140;28;20512;-72
2021/07/26 03:05:14;;;;;;;4.35;3.42;;;16.60;99.90;;;;;;5051793;28;20037;-71
2021/07/26 03:07:40;;;;;;;4.70;3.50;;;16.30;99.90;;;;;;5050864;28;20036;-71
2021/07/26 03:10:06;;;;;;;6.35;3.80;;;16.90;99.90;;;;;;5052284;28;20526;-71
2021/07/26 03:12:32;;;;;;;4.63;3.55;;;16.30;99.90;;;;;;5053082;28;20374;-71
2021/07/26 03:14:57;;;;;;;5.90;4.00;;;16.50;99.90;;;;;;5053519;28;20036;-71
2021/07/26 03:17:25;;;;;;;7.43;3.97;;;16.20;99.90;;;;;;5052039;28;20525;-72
2021/07/26 03:19:57;;;;;;;8.32;3.70;;;16.20;99.90;;;;;;5014749;22;20133;-73
2021/07/26 03:22:48;;;;;;;4.70;3.83;;;16.20;99.90;;;;;;4993741;28;20029;-74
2021/07/26 03:25:13;;;;;;;5.85;4.00;;;16.20;99.90;;;;;;4993398;28;20046;-73
2021/07/26 03:27:39;;;;;;;6.10;3.72;;;16.30;99.90;;;;;;4993542;28;20034;-74
2021/07/26 03:30:05;;;;;;;6.57;4.15;;;16.20;99.90;;;;;;4972911;28;20129;-74
2021/07/26 03:32:31;;;;;;;8.77;4.05;;;16.00;99.90;;;;;;4973260;28;20034;-74
2021/07/26 03:34:57;;;;;;;5.00;4.15;;;16.50;99.90;;;;;;4972311;28;20042;-74
2021/07/26 03:37:22;;;;;;;7.47;4.45;;;16.50;99.90;;;;;;4974002;28;20029;-74
2021/07/26 03:39:48;;;;;;;5.68;4.45;;;16.50;99.90;;;;;;4971970;28;20353;-74
2021/07/26 03:42:13;;;;;;;6.30;4.20;;;16.40;99.90;;;;;;4974054;28;20027;-75
2021/07/26 03:44:39;;;;;;;7.82;4.20;;;17.00;99.90;;;;;;4972812;28;20058;-74
2021/07/26 03:47:04;;;;;;;5.43;4.10;;;16.40;99.90;;;;;;4973532;28;20039;-74
2021/07/26 03:49:30;;;;;;;9.80;4.43;;;16.60;99.90;;;;;;4973286;28;20041;-73
2021/07/26 03:51:56;;;;;;;7.13;4.00;;;16.70;99.90;;;;;;4973709;28;20031;-73
2021/07/26 03:54:21;;;;;;;5.85;3.40;;;16.70;99.90;;;;;;4973323;28;20019;-73
2021/07/26 03:56:47;;;;;;;7.57;4.50;;;16.70;99.90;;;;;;4973645;28;20518;-73
2021/07/26 03:59:12;;;;;;;5.50;4.38;;;17.20;99.90;;;;;;4972937;28;20065;-74
2021/07/26 04:01:38;;;;;;;7.82;4.57;;;16.60;99.90;;;;;;4972458;28;20487;-74
2021/07/26 04:04:04;;;;;;;7.60;4.82;;;16.40;99.90;;;;;;4972304;28;20031;-73
2021/07/26 04:06:30;;;;;;;6.45;4.30;;;16.60;99.90;;;;;;4973444;28;20023;-74
2021/07/26 04:08:55;;;;;;;9.05;5.45;;;17.20;99.90;;;;;;4972779;28;20073;-74
2021/07/26 04:11:25;;;;;;;5.55;4.43;;;16.40;99.90;;;;;;4973034;28;20097;-75
2021/07/26 04:13:55;;;;;;;5.32;4.60;;;16.40;99.90;;;;;;4973151;28;20031;-75
2021/07/26 04:16:21;;;;;;;6.03;4.82;;;16.50;99.90;;;;;;4973411;28;20026;-75
2021/07/26 04:18:49;;;;;;;5.95;4.65;;;16.70;99.90;;;;;;4955618;28;20043;-75
2021/07/26 04:21:15;;;;;;;7.60;4.78;;;17.40;99.90;;;;;;4971878;28;20028;-74
2021/07/26 04:23:41;;;;;;;6.03;4.88;;;16.70;99.90;;;;;;4973169;28;20399;-75
2021/07/26 04:26:06;;;;;;;10.43;3.90;;;17.10;99.90;;;;;;4973050;28;20695;-75
2021/07/26 04:28:32;;;;;;;5.05;4.07;;;17.30;99.90;;;;;;4972784;28;20035;-75
2021/07/26 04:30:58;;;;;;;5.80;3.88;;;17.20;99.90;;;;;;4966890;28;20030;-75
2021/07/26 04:33:23;;;;;;;5.97;3.67;;;17.20;99.90;;;;;;4973085;28;20026;-75
2021/07/26 04:35:49;;;;;;;5.93;3.78;;;17.10;99.90;;;;;;4973064;28;20082;-75
2021/07/26 04:38:14;;;;;;;7.30;3.35;;;17.80;99.90;;;;;;4972966;28;20077;-74
2021/07/26 04:40:40;;;;;;;5.53;3.58;;;17.80;99.90;;;;;;4972166;28;20387;-75
2021/07/26 04:43:06;;;;;;;7.50;4.07;;;17.90;99.90;;;;;;4972732;28;20500;-75
2021/07/26 04:45:31;;;;;;;4.78;3.47;;;17.20;99.90;;;;;;4972908;28;20031;-74
2021/07/26 04:47:57;;;;;;;4.53;3.38;;;17.50;99.90;;;;;;4973234;28;20034;-74
2021/07/26 04:50:22;;;;;;;6.40;3.25;;;17.50;99.90;;;;;;4972544;28;20074;-74
2021/07/26 04:52:48;;;;;;;5.00;3.10;;;17.40;99.90;;;;;;4969617;28;20031;-74
2021/07/26 04:55:14;;;;;;;5.18;3.22;;;17.50;99.90;;;;;;4971460;28;20118;-78
2021/07/26 04:57:40;;;;;;;4.55;3.10;;;17.60;99.90;;;;;;4972912;28;20143;-74
2021/07/26 05:00:07;;;;;;;6.30;3.10;;;17.80;99.90;;;;;;4971977;28;20035;-74
2021/07/26 05:02:33;;;;;;;4.38;3.03;;;17.80;99.90;;;;;;4972473;28;20033;-75
2021/07/26 05:05:01;;;;;;;5.32;3.10;;;17.90;99.90;;;;;;4972818;28;20480;-74
2021/07/26 05:07:26;;;;;;;4.53;2.78;;;17.80;99.90;;;;;;4955240;28;20034;-75
2021/07/26 05:09:52;;;;;;;4.30;3.00;;;17.90;99.90;;;;;;4971773;28;20073;-74
2021/07/26 05:12:18;;;;;;;5.90;3.22;;;18.20;99.90;;;;;;4972746;28;20566;-74
2021/07/26 05:14:48;;;;;;;6.97;3.10;;;18.30;99.90;;;;;;4972776;28;20034;-75
2021/07/26 05:17:18;;;;;;;4.13;3.05;;;18.30;99.90;;;;;;4972828;28;20031;-74
2021/07/26 05:19:44;;;;;;;5.68;3.15;;;18.40;99.90;;;;;;4971922;28;20487;-75
2021/07/26 05:22:09;;;;;;;4.13;3.00;;;18.60;99.90;;;;;;4972438;28;20027;-74
2021/07/26 05:24:35;;;;;;;3.88;2.88;;;18.60;99.90;;;;;;4972352;28;20031;-75
2021/07/26 05:27:02;;;;;;;5.70;2.50;;;18.60;99.90;;;;;;4972691;28;20031;-75
2021/07/26 05:29:29;;;;;;;7.68;3.15;;;18.70;99.90;;;;;;4971817;28;20042;-75
2021/07/26 05:31:55;;;;;;;4.47;2.85;;;18.70;99.90;;;;;;4972674;28;20022;-75
2021/07/26 05:34:21;;;;;;;4.10;3.00;;;19.10;99.90;;;;;;4972307;28;20035;-75
2021/07/26 05:36:46;;;;;;;6.38;3.28;;;18.90;99.90;;;;;;4972622;28;20062;-75
2021/07/26 05:39:12;;;;;;;6.22;3.72;;;19.20;99.90;;;;;;4971595;28;20108;-75
2021/07/26 05:41:40;;;;;;;6.85;3.35;;;19.20;99.90;;;;;;4975444;28;20026;-75
2021/07/26 05:44:06;;;;;;;6.20;3.38;;;19.30;99.90;;;;;;4974369;28;20070;-75
2021/07/26 05:46:32;;;;;;;4.95;3.58;;;20.20;99.90;;;;;;4970734;28;20163;-74
2021/07/26 05:48:58;;;;;;;7.38;3.85;;;19.50;99.90;;;;;;4985636;28;20053;-74
2021/07/26 05:51:23;;;;;;;6.47;3.42;;;19.50;99.90;;;;;;4980285;28;20442;-72
2021/07/26 05:53:49;;;;;;;6.00;3.50;;;19.60;99.90;;;;;;4984603;28;20031;-72
2021/07/26 05:56:40;;;;;;;;;;;;;;;;;;;;;
2021/07/26 05:59:06;;;;;;;4.65;3.70;;;19.70;99.90;;;;;;4981558;28;20031;-73
2021/07/26 06:01:47;;;;;;;4.68;3.42;;;20.10;99.90;;;;;;4987951;28;20034;-73
2021/07/26 06:04:16;;;;;;;5.38;3.38;;;19.70;99.90;;;;;;4975258;28;20545;-73
2021/07/26 06:06:43;;;;;;;5.45;3.60;;;20.00;99.90;;;;;;4974871;28;20031;-73
2021/07/26 06:09:09;;;;;;;6.22;3.55;;;19.70;99.90;;;;;;4970069;28;20127;-73
2021/07/26 06:11:36;;;;;;;4.25;3.35;;;19.60;99.90;;;;;;4979316;28;20443;-75
2021/07/26 06:14:02;;;;;;;7.00;3.40;;;19.70;99.90;;;;;;4982249;28;20126;-73
2021/07/26 06:16:27;;;;;;;5.85;3.75;;;19.70;99.90;;;;;;4987201;28;20109;-73
2021/07/26 06:18:53;;;;;;;5.45;3.33;;;19.80;99.90;;;;;;4978687;28;20034;-73
2021/07/26 06:21:20;;;;;;;5.72;3.25;;;20.00;99.90;;;;;;4977684;28;20032;-73
2021/07/26 06:23:45;;;;;;;6.82;3.22;;;19.90;99.90;;;;;;4956057;29;20484;-73
2021/07/26 06:26:11;;;;;;;4.63;2.90;;;20.30;99.90;;;;;;4956649;28;20050;-73
2021/07/26 06:28:37;;;;;;;4.95;3.00;;;20.00;99.90;;;;;;4954403;28;20035;-73
2021/07/26 06:31:03;;;;;;;4.97;3.28;;;20.30;99.90;;;;;;4977107;28;20026;-73
2021/07/26 06:33:30;;;;;;;5.72;2.85;;;20.20;99.90;;;;;;4981778;28;20050;-73
2021/07/26 06:35:56;;;;;;;4.82;2.95;;;20.40;99.90;;;;;;4981146;28;20109;-73
2021/07/26 06:38:22;;;;;;;4.75;3.00;;;20.60;99.90;;;;;;4982918;28;20138;-73
2021/07/26 06:40:47;;;;;;;4.18;2.80;;;20.70;99.90;;;;;;4981765;28;20542;-73
2021/07/26 06:43:13;;;;;;;5.53;2.92;;;20.90;99.90;;;;;;4983441;28;20045;-74
2021/07/26 06:45:39;;;;;;;4.15;2.55;;;22.00;99.90;;;;;;4991051;28;20057;-73
2021/07/26 06:48:05;;;;;;;6.47;2.72;;;21.20;99.90;;;;;;4990477;28;20032;-73
2021/07/26 06:50:31;;;;;;;5.53;2.60;;;21.40;99.90;;;;;;4970675;28;20027;-75
2021/07/26 06:52:56;;;;;;;4.78;2.65;;;21.60;99.90;;;;;;4984621;28;20026;-76
2021/07/26 06:55:22;;;;;;;3.63;2.50;;;21.80;99.90;;;;;;4968654;28;20440;-75
2021/07/26 06:57:47;;;;;;;7.05;2.60;;;21.90;99.90;;;;;;4967687;28;20031;-74
2021/07/26 07:00:13;;;;;;;6.47;2.78;;;21.90;99.90;;;;;;4967372;28;20504;-74
2021/07/26 07:02:39;;;;;;;5.85;3.42;;;21.90;99.90;;;;;;4950404;28;20402;-74
2021/07/26 07:05:05;;;;;;;4.70;2.60;;;21.70;99.90;;;;;;4969665;28;20027;-74
2021/07/26 07:07:31;;;;;;;4.35;2.53;;;21.70;99.90;;;;;;4962839;28;20039;-74
2021/07/26 07:09:56;;;;;;;3.95;2.50;;;21.80;99.90;;;;;;4969969;28;20037;-74
2021/07/26 07:12:22;;;;;;;5.60;2.58;;;21.90;99.90;;;;;;4953231;28;20053;-74
2021/07/26 07:14:48;;;;;;;4.60;2.33;;;21.80;99.90;;;;;;4964904;28;20035;-74
2021/07/26 07:17:13;;;;;;;4.47;2.30;;;22.00;99.90;;;;;;4971130;28;20125;-75
2021/07/26 07:19:41;;;;;;;4.18;2.75;;;22.00;99.90;;;;;;4948501;28;20035;-74
2021/07/26 07:22:07;;;;;;;5.10;2.58;;;22.10;99.90;;;;;;4970046;28;20431;-74
2021/07/26 07:24:33;;;;;;;6.00;3.08;;;22.10;99.90;;;;;;4970269;28;20042;-75
2021/07/26 07:26:58;;;;;;;4.55;2.72;;;22.20;99.90;;;;;;4967045;28;20032;-74
2021/07/26 07:29:24;;;;;;;6.53;2.50;;;22.30;99.90;;;;;;4958909;28;20069;-74
2021/07/26 07:31:50;;;;;;;2.75;2.35;;;22.40;99.90;;;;;;4967137;28;20418;-73
2021/07/26 07:34:15;;;;;;;5.15;2.55;;;22.60;99.90;;;;;;4979501;28;20110;-73
2021/07/26 07:36:42;;;;;;;4.45;2.70;;;22.50;99.90;;;;;;4977705;28;20018;-73
2021/07/26 07:39:08;;;;;;;4.25;2.80;;;22.50;99.90;;;;;;4967841;28;20039;-73
2021/07/26 07:41:34;;;;;;;3.83;2.67;;;22.50;99.90;;;;;;4969630;28;20523;-73
2021/07/26 07:44:00;;;;;;;4.85;2.50;;;22.60;99.90;;;;;;4983848;28;20038;-73
2021/07/26 07:46:26;;;;;;;5.03;2.10;;;22.60;99.90;;;;;;4969327;28;20491;-73
2021/07/26 07:48:51;;;;;;;10.75;3.03;;;22.60;99.90;;;;;;4969713;28;20047;-73
2021/07/26 07:51:18;;;;;;;4.47;2.50;;;22.60;99.90;;;;;;4967928;28;20042;-73
2021/07/26 07:53:45;;;;;;;5.63;2.63;;;22.80;99.90;;;;;;4968575;28;20027;-73
2021/07/26 07:56:10;;;;;;;4.13;2.25;;;22.90;99.90;;;;;;4970979;28;20515;-74
2021/07/26 07:58:36;;;;;;;5.25;2.63;;;22.90;99.90;;;;;;4972850;28;20163;-74
2021/07/26 08:01:03;;;;;;;5.22;3.00;;;23.00;99.90;;;;;;4972963;28;20456;-73
2021/07/26 08:03:29;;;;;;;4.07;2.50;;;23.10;99.90;;;;;;4955419;28;20030;-73
2021/07/26 08:05:55;;;;;;;5.82;3.00;;;23.20;99.90;;;;;;4973108;28;20034;-74
2021/07/26 08:08:21;;;;;;;8.30;2.20;;;23.30;99.90;;;;;;4956149;28;20445;-73
2021/07/26 08:10:47;;;;;;;4.03;2.60;;;23.50;99.90;;;;;;4955003;28;20035;-73
2021/07/26 08:13:23;;;;;;;4.00;2.35;;;23.60;99.90;;;;;;4989291;28;20399;-73
2021/07/26 08:15:51;;;;;;;6.32;2.60;;;23.80;99.90;;;;;;4976933;28;20054;-73
2021/07/26 08:18:17;;;;;;;4.90;2.50;;;23.90;99.90;;;;;;4973216;28;20034;-73
2021/07/26 08:20:43;;;;;;;7.32;2.30;;;24.10;99.90;;;;;;4972027;28;20027;-74
2021/07/26 08:23:09;;;;;;;4.30;2.40;;;24.20;99.90;;;;;;4972294;28;20034;-74
2021/07/26 08:25:34;;;;;;;3.63;2.40;;;24.40;99.90;;;;;;4976749;28;20038;-74
2021/07/26 08:28:00;;;;;;;3.45;2.17;;;24.50;99.90;;;;;;4973162;28;20058;-74
2021/07/26 08:30:31;;;;;;;3.33;2.25;;;24.50;99.90;;;;;;4971300;28;20407;-74
2021/07/26 08:32:57;;;;;;;4.45;2.55;;;24.70;99.90;;;;;;4976666;28;20023;-74
2021/07/26 08:35:24;;;;;;;6.47;2.92;;;24.90;99.90;;;;;;4992420;28;20111;-74
2021/07/26 08:37:50;;;;;;;6.90;2.70;;;25.20;99.90;;;;;;4992057;28;20026;-74
2021/07/26 08:40:18;;;;;;;4.35;2.95;;;25.30;99.90;;;;;;4991077;28;20046;-74
2021/07/26 08:42:44;;;;;;;4.95;3.08;;;25.20;99.90;;;;;;4991785;28;20077;-74
2021/07/26 08:45:10;;;;;;;4.13;2.80;;;25.40;99.90;;;;;;4975548;28;20031;-73
2021/07/26 08:47:40;;;;;;;4.47;2.38;;;25.60;99.90;;;;;;4976848;28;20035;-73
2021/07/26 08:50:07;;;;;;;4.47;2.40;;;25.80;99.90;;;;;;4973561;28;20423;-74
2021/07/26 08:52:43;;;;;;;10.32;3.17;;;25.80;99.90;;;;;;4972668;28;20097;-75
2021/07/26 08:55:13;;;;;;;4.68;2.70;;;25.80;99.90;;;;;;4964011;28;20105;-76
2021/07/26 08:57:46;;;;;;;5.63;2.58;;;25.60;99.90;;;;;;4971933;28;20030;-76
2021/07/26 09:00:14;;;;;;;5.05;2.17;;;25.40;99.90;;;;;;4953129;28;20031;-75
2021/07/26 09:02:40;;;;;;;4.13;2.70;;;25.60;99.90;;;;;;4962295;28;20034;-75
2021/07/26 09:05:10;;;;;;;4.07;2.40;;;25.70;99.90;;;;;;4992046;28;20026;-74
2021/07/26 09:07:40;;;;;;;8.05;2.65;;;25.80;99.90;;;;;;4987859;28;20074;-74
2021/07/26 09:10:23;;;;;;;8.45;2.50;;;26.00;99.90;;;;;;4971476;28;20495;-75
2021/07/26 09:12:53;;;;;;;3.28;2.60;;;26.10;99.90;;;;;;4971312;28;20034;-74
2021/07/26 09:15:22;;;;;;;5.57;2.53;;;26.20;99.90;;;;;;4974206;28;20046;-74
2021/07/26 09:17:48;;;;;;;4.43;2.33;;;26.20;99.90;;;;;;4976577;28;20073;-76
2021/07/26 09:20:15;;;;;;;4.25;2.72;;;26.40;99.90;;;;;;4976781;28;20454;-77
2021/07/26 09:22:43;;;;;;;3.17;2.08;;;26.50;99.90;;;;;;4976400;28;20034;-76
2021/07/26 09:25:27;;;;;;;3.33;2.17;;;26.60;99.90;;;;;;4976344;28;20031;-80
2021/07/26 09:28:14;;;;;;;4.30;2.50;;;26.50;99.90;;;;;;4976528;28;20102;-76
2021/07/26 09:30:54;;;;;;;4.65;2.80;;;26.10;99.90;;;;;;4976348;28;20484;-77
2021/07/26 09:33:30;;;;;;;5.00;2.78;;;26.00;99.90;;;;;;4977280;28;20375;-76
2021/07/26 09:36:12;;;;;;;3.80;2.45;;;25.90;99.90;;;;;;4994695;28;20030;-75
2021/07/26 09:38:37;;;;;;;4.82;2.63;;;25.90;99.90;;;;;;4995699;28;20026;-76
2021/07/26 09:41:05;;;;;;;3.20;2.17;;;26.00;99.90;;;;;;4995276;28;20030;-77
2021/07/26 09:43:31;;;;;;;4.60;2.63;;;26.10;99.90;;;;;;4989850;28;20022;-78
2021/07/26 09:45:59;;;;;;;6.90;2.35;;;26.50;99.90;;;;;;4994366;28;20030;-77
2021/07/26 09:48:26;;;;;;;5.43;2.40;;;26.60;99.90;;;;;;4995334;28;20096;-75
2021/07/26 09:50:53;;;;;;;3.28;2.17;;;25.40;99.90;;;;;;4995351;28;20030;-76
2021/07/26 09:53:24;;;;;;;5.65;2.55;;;26.40;99.90;;;;;;4995525;28;20091;-77
2021/07/26 09:55:53;;;;;;;4.78;2.53;;;26.40;99.90;;;;;;4956649;29;20026;-76
2021/07/26 09:58:33;;;;;;;5.78;2.70;;;26.30;99.90;;;;;;4956880;29;20119;-77
2021/07/26 10:00:59;;;;;;;4.68;2.42;;;26.30;99.90;;;;;;4964327;28;20031;-76
2021/07/26 10:03:25;;;;;;;4.07;2.45;;;26.60;99.90;;;;;;4976344;28;20114;-76
2021/07/26 10:05:51;;;;;;;3.53;2.30;;;26.70;99.80;;;;;;4975586;28;20097;-76
2021/07/26 10:08:17;;;;;;;2.70;1.90;;;26.90;99.90;;;;;;4990587;28;20097;-77
2021/07/26 10:10:43;;;;;;;4.55;2.38;;;26.90;99.60;;;;;;4976040;28;20027;-77
2021/07/26 10:13:09;;;;;;;5.05;2.67;;;27.00;99.90;;;;;;4977452;28;20570;-77
2021/07/26 10:15:36;;;;;;;3.72;2.40;;;27.20;99.90;;;;;;4980034;28;20518;-77
2021/07/26 10:18:02;;;;;;;3.63;2.42;;;27.90;99.20;;;;;;4983712;28;20022;-74
2021/07/26 10:20:37;;;;;;;3.92;2.45;;;28.00;99.90;;;;;;4994352;28;20029;-74
2021/07/26 10:23:11;;;;;;;5.00;2.72;;;28.20;99.40;;;;;;4994050;28;20079;-76
2021/07/26 10:25:42;;;;;;;3.95;2.30;;;27.90;98.00;;;;;;4994029;28;20026;-76
2021/07/26 10:28:30;;;;;;;6.43;2.20;;;27.60;98.80;;;;;;4995621;28;20034;-76
2021/07/26 10:30:57;;;;;;;4.28;2.47;;;27.60;99.60;;;;;;4986125;28;20595;-76
2021/07/26 10:33:23;;;;;;;4.32;2.00;;;27.40;98.80;;;;;;4965377;28;20504;-76
2021/07/26 10:35:55;;;;;;;4.55;2.08;;;27.60;98.20;;;;;;4973154;28;20054;-76
2021/07/26 10:38:43;;;;;;;6.13;2.05;;;28.90;96.40;;;;;;4964833;28;20011;-76
2021/07/26 10:41:09;;;;;;;3.40;2.20;;;30.50;93.90;;;;;;4962606;28;20026;-77
2021/07/26 10:43:54;;;;;;;5.75;2.50;;;30.70;91.90;;;;;;4966933;28;20089;-76
2021/07/26 10:46:20;;;;;;;3.92;2.58;;;30.60;90.80;;;;;;4948906;28;20023;-76
2021/07/26 10:48:50;;;;;;;2.90;2.60;;;30.10;90.90;;;;;;4961287;28;20492;-76
2021/07/26 10:51:36;;;;;;;2.92;1.90;;;29.70;91.90;;;;;;4963559;28;20034;-76
2021/07/26 10:54:03;;;;;;;3.30;2.50;;;29.60;90.60;;;;;;4964706;28;20031;-76
2021/07/26 10:56:28;;;;;;;4.53;2.50;;;29.20;91.80;;;;;;4969477;28;20026;-76
2021/07/26 10:59:01;;;;;;;3.80;2.30;;;28.60;92.90;;;;;;4964456;28;20031;-76
2021/07/26 11:01:27;;;;;;;3.67;2.25;;;28.20;93.10;;;;;;4963719;28;20109;-76
2021/07/26 11:03:54;;;;;;;4.68;2.90;;;28.00;93.60;;;;;;4965201;28;20487;-75
2021/07/26 11:06:38;;;;;;;4.13;2.38;;;27.90;94.00;;;;;;4966502;28;20023;-76
2021/07/26 11:09:19;;;;;;;2.95;2.20;;;28.00;94.60;;;;;;4963958;28;20023;-77
2021/07/26 11:11:46;;;;;;;3.55;2.08;;;28.00;93.80;;;;;;4961692;28;20027;-77
2021/07/26 11:14:12;;;;;;;5.05;2.33;;;28.00;93.10;;;;;;4964785;28;20034;-77
2021/07/26 11:16:58;;;;;;;6.28;2.00;;;28.30;93.20;;;;;;4963551;28;20443;-77
2021/07/26 11:19:46;;;;;;;2.95;2.20;;;28.40;93.40;;;;;;4969970;28;20523;-77
2021/07/26 11:22:14;;;;;;;6.03;3.60;;;28.80;94.30;;;;;;4964529;28;20026;-75
2021/07/26 11:24:48;;;;;;;6.88;2.42;;;29.10;93.90;;;;;;4964078;28;20023;-76
2021/07/26 11:27:16;;;;;;;4.25;2.22;;;29.90;91.80;;;;;;4945397;28;20489;-76
2021/07/26 11:29:50;;;;;;;4.88;2.20;;;29.40;91.20;;;;;;4961801;28;20031;-77
2021/07/26 11:32:20;;;;;;;5.90;2.20;;;28.70;91.70;;;;;;4962217;28;20026;-76
2021/07/26 11:34:46;;;;;;;5.97;2.17;;;27.90;93.10;;;;;;4962516;28;20027;-77
2021/07/26 11:37:14;;;;;;;5.57;2.10;;;28.40;91.80;;;;;;4951120;28;20508;-76
2021/07/26 11:39:58;;;;;;;3.60;2.35;;;28.40;91.90;;;;;;4933745;28;20027;-75
2021/07/26 11:42:26;;;;;;;2.42;2.03;;;28.10;91.60;;;;;;4963681;28;20030;-76
2021/07/26 11:44:52;;;;;;;4.05;1.90;;;28.70;92.80;;;;;;4965137;28;20552;-77
2021/07/26 11:47:33;;;;;;;8.48;2.25;;;29.30;90.80;;;;;;4962708;28;20039;-76
2021/07/26 11:50:10;;;;;;;3.15;2.17;;;29.50;90.00;;;;;;4962184;28;20029;-78
2021/07/26 11:52:36;;;;;;;4.85;1.95;;;30.20;88.30;;;;;;4961177;28;20038;-76
2021/07/26 11:55:12;;;;;;;4.25;2.50;;;30.70;85.30;;;;;;4962643;28;20051;-76
2021/07/26 11:57:54;;;;;;;3.42;2.15;;;31.50;87.30;;;;;;4967518;28;20034;-76
2021/07/26 12:00:34;;;;;;;4.45;2.47;;;32.30;82.60;;;;;;4960617;28;20484;-76
2021/07/26 12:03:01;;;;;;;6.80;2.20;;;31.70;79.00;;;;;;4957550;28;20141;-77
2021/07/26 12:05:29;;;;;;;7.95;2.22;;;31.80;79.90;;;;;;4971574;28;20038;-77
2021/07/26 12:07:54;;;;;;;3.95;2.00;;;31.40;80.30;;;;;;4967456;28;20078;-77
2021/07/26 12:10:34;;;;;;;4.82;1.90;;;31.20;81.10;;;;;;4970211;28;20416;-77
2021/07/26 12:13:26;;;;;;;4.97;2.00;;;31.60;79.00;;;;;;4959916;28;20178;-77
2021/07/26 12:16:09;;;;;;;5.97;2.35;;;31.40;81.60;;;;;;4967662;28;20038;-77
2021/07/26 12:18:36;;;;;;;5.97;2.40;;;32.20;80.60;;;;;;4962863;28;20431;-76
2021/07/26 12:21:03;;;;;;;9.38;2.47;;;31.00;79.70;;;;;;4945643;28;20038;-76
2021/07/26 12:23:31;;;;;;;4.70;2.25;;;30.30;79.20;;;;;;4972196;28;20022;-77
2021/07/26 12:25:57;;;;;;;3.25;2.35;;;29.30;83.60;;;;;;4962491;28;20055;-77
2021/07/26 12:28:39;;;;;;;5.18;2.20;;;28.60;85.20;;;;;;4961473;28;20040;-77
2021/07/26 12:31:30;;;;;;;3.53;2.20;;;28.60;84.60;;;;;;4962101;28;20041;-77
2021/07/26 12:34:21;;;;;;;4.28;2.13;;;28.60;85.20;;;;;;4963880;28;20114;-77
2021/07/26 12:36:47;;;;;;;4.75;2.47;;;28.10;87.80;;;;;;4966388;28;20473;-77
2021/07/26 12:39:14;;;;;;;5.72;2.80;;;27.70;90.10;;;;;;4963803;28;20031;-77
2021/07/26 12:41:44;;;;;;;7.20;2.78;;;27.60;90.70;;;;;;4963329;28;20034;-78
2021/07/26 12:44:16;;;;;;;4.50;2.83;;;27.10;91.60;;;;;;4964951;28;20111;-77
2021/07/26 12:46:46;;;;;;;4.85;2.53;;;26.60;93.00;;;;;;4963932;28;20027;-76
2021/07/26 12:49:13;;;;;;;7.05;2.60;;;26.20;92.80;;;;;;4964829;28;20034;-77
2021/07/26 12:51:39;;;;;;;5.07;2.60;;;25.50;95.40;;;;;;4967259;28;20020;-76
2021/07/26 12:54:04;;;;;;;4.43;2.45;;;24.70;98.80;;;;;;4965617;28;20038;-77
2021/07/26 12:56:31;;;;;;;4.93;2.90;;;24.20;99.90;;;;;;4964498;28;20039;-78